createdAt,value
2019-02-28T00:00:18.686Z,0.90
2019-02-28T00:04:22.672Z,0.47
2019-02-28T00:08:25.211Z,0.50
2019-02-28T00:12:27.543Z,0.67
2019-02-28T00:16:30.229Z,0.50
2019-02-28T00:20:32.778Z,0.40
2019-02-28T00:24:35.293Z,0.40
2019-02-28T00:28:37.857Z,0.60
2019-02-28T00:32:40.831Z,0.60
2019-02-28T00:36:43.485Z,0.30
2019-02-28T00:40:45.891Z,0.50
2019-02-28T00:44:50.191Z,0.43
2019-02-28T00:48:53.944Z,0.40
2019-02-28T00:52:56.860Z,0.30
2019-02-28T00:56:59.270Z,0.73
2019-02-28T01:01:01.706Z,0.60
2019-02-28T01:05:06.124Z,0.60
2019-02-28T01:09:10.288Z,0.50
2019-02-28T01:13:12.830Z,0.80
2019-02-28T01:17:15.316Z,0.33
2019-02-28T01:21:17.730Z,0.57
2019-02-28T01:25:20.316Z,0.50
2019-02-28T01:29:22.745Z,0.50
2019-02-28T01:33:25.708Z,0.20
2019-02-28T01:37:28.613Z,0.20
2019-02-28T01:41:31.180Z,0.60
2019-02-28T01:45:34.247Z,0.40
2019-02-28T01:49:36.560Z,0.20
2019-02-28T01:53:39.661Z,0.40
2019-02-28T01:57:43.995Z,0.53
2019-02-28T02:01:46.298Z,0.73
2019-02-28T02:05:51.860Z,0.47
2019-02-28T02:09:52.694Z,0.30
2019-02-28T02:13:55.011Z,0.33
2019-02-28T02:17:57.718Z,0.53
2019-02-28T02:22:00.175Z,0.40
2019-02-28T02:26:02.585Z,0.30
2019-02-28T02:30:13.373Z,0.63
2019-02-28T02:34:10.308Z,0.30
2019-02-28T02:38:14.071Z,0.27
2019-02-28T02:42:16.728Z,0.37
2019-02-28T02:46:21.248Z,0.30
2019-02-28T02:50:23.697Z,0.53
2019-02-28T02:54:26.036Z,0.40
2019-02-28T02:58:28.479Z,0.27
2019-02-28T03:02:33.177Z,0.30
2019-02-28T03:06:34.941Z,0.33
2019-02-28T03:10:37.470Z,0.50
2019-02-28T03:14:39.879Z,0.50
2019-02-28T03:18:42.385Z,0.50
2019-02-28T03:22:44.898Z,0.70
2019-02-28T03:26:47.345Z,0.20
2019-02-28T03:30:49.902Z,0.53
2019-02-28T03:34:58.223Z,0.67
2019-02-28T03:38:56.364Z,0.40
2019-02-28T03:43:05.251Z,0.50
2019-02-28T03:47:04.095Z,0.50
2019-02-28T03:51:06.508Z,0.20
2019-02-28T03:55:09.184Z,0.40
2019-02-28T03:59:18.489Z,0.20
2019-02-28T04:03:15.851Z,0.50
2019-02-28T04:07:18.277Z,0.87
2019-02-28T04:11:20.842Z,0.40
2019-02-28T04:15:23.454Z,0.47
2019-02-28T04:19:26.008Z,0.30
2019-02-28T04:23:35.520Z,0.30
2019-02-28T04:27:32.585Z,0.30
2019-02-28T04:31:37.747Z,0.27
2019-02-28T04:35:40.223Z,0.37
2019-02-28T04:39:42.672Z,0.40
2019-02-28T04:43:45.182Z,0.40
2019-02-28T04:47:47.620Z,0.40
2019-02-28T04:51:50.700Z,0.40
2019-02-28T04:55:53.330Z,0.43
2019-02-28T04:59:55.830Z,0.60
2019-02-28T05:03:59.236Z,0.10
2019-02-28T05:08:05.731Z,0.27
2019-02-28T05:12:06.349Z,0.30
2019-02-28T05:16:09.312Z,0.30
2019-02-28T05:20:12.961Z,0.37
2019-02-28T05:24:15.435Z,0.27
2019-02-28T05:28:17.816Z,0.37
2019-02-28T05:32:20.591Z,0.30
2019-02-28T05:36:23.007Z,0.20
2019-02-28T05:40:25.682Z,0.20
2019-02-28T05:44:27.995Z,0.33
2019-02-28T05:48:30.410Z,0.17
2019-02-28T05:52:33.702Z,0.30
2019-02-28T05:56:38.444Z,0.20
2019-02-28T06:00:40.823Z,0.20
2019-02-28T06:04:43.230Z,0.40
2019-02-28T06:08:45.572Z,0.20
2019-02-28T06:12:48.005Z,0.70
2019-02-28T06:16:50.330Z,0.20
2019-02-28T06:20:52.866Z,0.30
2019-02-28T06:24:55.170Z,0.40
2019-02-28T06:28:57.720Z,0.20
2019-02-28T06:33:00.067Z,0.20
2019-02-28T06:37:03.735Z,0.57
2019-02-28T06:41:07.632Z,0.20
2019-02-28T06:45:13.360Z,0.20
2019-02-28T06:49:15.695Z,0.20
2019-02-28T06:53:18.241Z,0.43
2019-02-28T06:57:20.635Z,0.20
2019-02-28T07:01:23.222Z,0.10
2019-02-28T07:05:26.320Z,0.20
2019-02-28T07:09:30.536Z,0.20
2019-02-28T07:13:33.190Z,0.37
2019-02-28T07:17:35.618Z,0.60
2019-02-28T07:21:43.001Z,0.27
2019-02-28T07:25:44.286Z,0.47
2019-02-28T07:29:46.110Z,0.10
2019-02-28T07:33:48.606Z,0.20
2019-02-28T07:37:54.418Z,0.20
2019-02-28T07:41:58.817Z,0.30
2019-02-28T07:46:01.097Z,0.20
2019-02-28T07:50:04.070Z,0.10
2019-02-28T07:54:06.611Z,0.20
2019-02-28T07:58:09.125Z,0.20
2019-02-28T08:02:11.711Z,0.20
2019-02-28T08:06:14.245Z,0.27
2019-02-28T08:10:18.911Z,0.20
2019-02-28T08:14:21.365Z,0.30
2019-02-28T08:18:23.731Z,0.10
2019-02-28T08:22:26.266Z,0.40
2019-02-28T08:26:28.590Z,0.30
2019-02-28T08:30:31.160Z,0.10
2019-02-28T08:34:33.584Z,0.30
2019-02-28T08:38:35.987Z,0.10
2019-02-28T08:42:39.633Z,0.27
2019-02-28T08:46:43.495Z,0.20
2019-02-28T08:50:47.474Z,0.37
2019-02-28T08:54:49.886Z,0.20
2019-02-28T08:58:52.230Z,0.20
2019-02-28T09:02:54.670Z,0.20
2019-02-28T09:06:57.110Z,0.23
2019-02-28T09:11:01.041Z,0.33
2019-02-28T09:15:03.424Z,0.20
2019-02-28T09:19:06.156Z,0.20
2019-02-28T09:23:08.510Z,0.30
2019-02-28T09:27:12.289Z,0.27
2019-02-28T09:31:14.754Z,0.20
2019-02-28T09:35:17.311Z,0.20
2019-02-28T09:39:20.326Z,0.17
2019-02-28T09:43:23.921Z,0.20
2019-02-28T09:47:27.517Z,0.20
2019-02-28T09:51:32.093Z,0.30
2019-02-28T09:55:35.459Z,0.20
2019-02-28T09:59:38.670Z,0.10
2019-02-28T10:03:41.333Z,0.20
2019-02-28T10:07:44.084Z,0.30
2019-02-28T10:11:46.629Z,0.30
2019-02-28T10:15:49.240Z,0.13
2019-02-28T10:19:52.242Z,0.20
2019-02-28T10:23:57.063Z,0.23
2019-02-28T10:28:02.628Z,0.20
2019-02-28T10:32:06.193Z,0.13
2019-02-28T10:36:09.348Z,0.20
2019-02-28T10:40:17.726Z,0.20
2019-02-28T10:44:19.216Z,0.20
2019-02-28T10:48:21.744Z,0.20
2019-02-28T10:52:26.999Z,0.17
2019-02-28T10:56:31.737Z,0.17
2019-02-28T11:00:33.803Z,0.17
2019-02-28T11:04:36.241Z,0.23
2019-02-28T11:08:38.677Z,0.10
2019-02-28T11:12:41.902Z,0.20
2019-02-28T11:16:44.382Z,0.23
2019-02-28T11:20:47.197Z,0.10
2019-02-28T11:24:50.062Z,0.10
2019-02-28T11:28:52.615Z,0.10
2019-02-28T11:32:55.594Z,0.17
2019-02-28T11:36:58.018Z,0.10
2019-02-28T11:41:00.577Z,0.00
2019-02-28T11:45:03.107Z,0.20
2019-02-28T11:49:07.052Z,0.10
2019-02-28T11:53:09.531Z,0.03
2019-02-28T11:57:12.016Z,0.10
2019-02-28T12:01:14.452Z,0.10
2019-02-28T12:05:16.897Z,0.10
2019-02-28T12:09:20.043Z,0.10
2019-02-28T12:13:22.703Z,0.13
2019-02-28T12:17:25.533Z,0.10
2019-02-28T12:21:30.915Z,0.10
2019-02-28T12:25:33.701Z,0.10
2019-02-28T12:29:36.387Z,0.10
2019-02-28T12:33:38.820Z,0.10
2019-02-28T12:37:41.381Z,0.10
2019-02-28T12:41:43.851Z,0.10
2019-02-28T12:45:47.349Z,0.10
2019-02-28T12:49:50.027Z,0.10
2019-02-28T12:53:52.377Z,0.10
2019-02-28T12:57:57.681Z,0.20
2019-02-28T13:01:58.947Z,0.10
2019-02-28T13:06:02.617Z,0.10
2019-02-28T13:10:05.810Z,0.10
2019-02-28T13:14:08.527Z,0.10
2019-02-28T13:18:10.942Z,0.10
2019-02-28T13:22:13.494Z,0.10
2019-02-28T13:26:16.320Z,0.10
2019-02-28T13:30:23.505Z,0.10
2019-02-28T13:34:29.319Z,0.10
2019-02-28T13:38:31.407Z,0.10
2019-02-28T13:42:36.293Z,0.17
2019-02-28T13:46:38.477Z,0.20
2019-02-28T13:50:40.840Z,0.10
2019-02-28T13:54:43.379Z,0.10
2019-02-28T13:58:47.106Z,0.10
2019-02-28T14:02:49.746Z,0.10
2019-02-28T14:06:52.443Z,0.10
2019-02-28T14:10:56.441Z,0.13
2019-02-28T14:14:58.760Z,0.20
2019-02-28T14:19:01.282Z,0.20
2019-02-28T14:23:03.624Z,0.10
2019-02-28T14:27:06.186Z,0.20
2019-02-28T14:31:08.985Z,0.10
2019-02-28T14:35:11.995Z,0.20
2019-02-28T14:39:14.410Z,0.20
2019-02-28T14:43:19.544Z,0.10
2019-02-28T14:47:20.921Z,0.10
2019-02-28T14:51:25.517Z,0.20
2019-02-28T14:55:29.246Z,0.23
2019-02-28T14:59:32.023Z,0.40
2019-02-28T15:03:35.909Z,0.50
2019-02-28T15:07:42.039Z,0.60
2019-02-28T15:11:47.088Z,0.80
2019-02-28T15:15:53.099Z,0.60
2019-02-28T15:19:56.986Z,1.03
2019-02-28T15:23:57.867Z,0.90
2019-02-28T15:28:00.180Z,0.97
2019-02-28T15:32:02.821Z,1.20
2019-02-28T15:36:07.101Z,1.37
2019-02-28T15:40:12.006Z,1.03
2019-02-28T15:44:14.472Z,1.03
2019-02-28T15:48:16.958Z,1.80
2019-02-28T15:52:19.379Z,1.90
2019-02-28T15:56:22.013Z,2.13
2019-02-28T16:00:28.474Z,2.10
2019-02-28T16:04:31.105Z,2.10
2019-02-28T16:08:33.506Z,2.77
2019-02-28T16:12:35.969Z,2.63
2019-02-28T16:16:38.293Z,2.70
2019-02-28T16:20:40.809Z,2.77
2019-02-28T16:24:47.553Z,3.20
2019-02-28T16:28:51.518Z,2.57
2019-02-28T16:32:54.115Z,2.90
2019-02-28T16:36:57.521Z,1.77
2019-02-28T16:41:01.557Z,1.53
2019-02-28T16:45:06.142Z,1.10
2019-02-28T16:49:10.522Z,1.60
2019-02-28T16:53:16.212Z,0.70
2019-02-28T16:57:18.000Z,0.67
2019-02-28T17:01:21.373Z,0.60
2019-02-28T17:05:27.973Z,0.80
2019-02-28T17:09:34.325Z,0.40
2019-02-28T17:13:42.345Z,0.30
2019-02-28T17:17:54.500Z,0.30
2019-02-28T17:21:56.974Z,0.47
2019-02-28T17:26:00.660Z,0.30
2019-02-28T17:30:14.525Z,0.40
2019-02-28T17:34:23.713Z,0.10
2019-02-28T17:38:23.484Z,0.40
2019-02-28T17:42:25.998Z,0.23
2019-02-28T17:46:28.355Z,0.47
2019-02-28T17:51:18.742Z,0.60
2019-02-28T17:55:59.224Z,0.90
2019-02-28T18:00:51.819Z,0.73
2019-02-28T18:05:36.549Z,0.50
2019-02-28T18:10:03.395Z,0.40
2019-02-28T18:14:46.899Z,0.50
2019-02-28T18:19:45.275Z,0.63
2019-02-28T18:24:52.689Z,1.07
2019-02-28T18:29:25.854Z,0.57
2019-02-28T18:33:28.329Z,0.87
2019-02-28T18:37:30.709Z,1.13
2019-02-28T18:41:33.607Z,0.93
2019-02-28T18:45:36.509Z,1.03
2019-02-28T18:49:39.333Z,1.27
2019-02-28T18:53:42.015Z,1.07
2019-02-28T18:57:44.629Z,1.20
2019-02-28T19:01:47.391Z,1.20
2019-02-28T19:05:50.039Z,1.03
2019-02-28T19:09:52.403Z,0.73
2019-02-28T19:13:55.100Z,1.00
2019-02-28T19:17:57.750Z,0.63
2019-02-28T19:22:00.295Z,0.90
2019-02-28T19:26:02.666Z,0.83
2019-02-28T19:30:06.650Z,0.80
2019-02-28T19:34:10.550Z,0.80
2019-02-28T19:38:13.158Z,0.80
2019-02-28T19:42:17.729Z,0.70
2019-02-28T19:46:20.415Z,0.60
2019-02-28T19:50:23.992Z,0.50
2019-02-28T19:54:26.717Z,0.53
2019-02-28T19:58:29.375Z,0.50
2019-02-28T20:02:32.027Z,0.40
2019-02-28T20:06:34.767Z,0.40
2019-02-28T20:10:37.760Z,0.50
2019-02-28T20:14:40.554Z,0.57
2019-02-28T20:18:43.124Z,0.37
2019-02-28T20:22:45.544Z,0.40
2019-02-28T20:26:48.224Z,0.43
2019-02-28T20:30:50.783Z,0.50
2019-02-28T20:34:53.193Z,0.40
2019-02-28T20:38:55.808Z,0.30
2019-02-28T20:42:58.678Z,0.30
2019-02-28T20:47:01.282Z,0.20
2019-02-28T20:51:04.143Z,0.20
2019-02-28T20:55:06.973Z,0.30
2019-02-28T20:59:10.428Z,0.30
2019-02-28T21:03:14.731Z,0.20
2019-02-28T21:07:17.430Z,0.20
2019-02-28T21:11:20.053Z,0.30
2019-02-28T21:15:24.695Z,0.37
2019-02-28T21:19:27.181Z,0.20
2019-02-28T21:23:29.839Z,0.20
2019-02-28T21:27:32.464Z,0.10
2019-02-28T21:31:35.160Z,0.20
2019-02-28T21:35:37.785Z,0.27
2019-02-28T21:39:40.749Z,0.00
2019-02-28T21:43:43.833Z,0.30
2019-02-28T21:47:46.242Z,0.20
2019-02-28T21:51:48.719Z,0.20
2019-02-28T21:55:52.879Z,0.20
2019-02-28T21:59:55.191Z,0.20
2019-02-28T22:03:57.599Z,0.20
2019-02-28T22:07:59.912Z,0.27
2019-02-28T22:12:02.306Z,0.10
2019-02-28T22:16:06.931Z,0.30
2019-02-28T22:20:10.656Z,0.17
2019-02-28T22:24:12.977Z,0.23
2019-02-28T22:28:15.568Z,0.20
2019-02-28T22:32:24.617Z,0.20
2019-02-28T22:36:33.693Z,0.17
2019-02-28T22:40:36.071Z,0.20
2019-02-28T22:44:38.911Z,0.10
2019-02-28T22:48:41.346Z,0.10
2019-02-28T22:52:44.067Z,0.10
2019-02-28T22:56:46.727Z,0.20
2019-02-28T23:01:06.457Z,0.10
2019-02-28T23:05:09.332Z,0.10
2019-02-28T23:09:11.451Z,0.30
2019-02-28T23:13:13.812Z,0.20
2019-02-28T23:17:16.406Z,0.20
2019-02-28T23:21:19.076Z,0.20
2019-02-28T23:25:23.081Z,0.17
2019-02-28T23:29:27.751Z,0.10
2019-02-28T23:33:30.407Z,0.20
2019-02-28T23:37:32.782Z,0.10
2019-02-28T23:41:35.369Z,0.20
2019-02-28T23:45:38.628Z,0.03
2019-02-28T23:49:41.263Z,0.10
2019-02-28T23:53:43.821Z,0.40
2019-02-28T23:57:46.557Z,0.10
